createdAt,value
2023-05-11T00:00:24.347Z,470.0000
2023-05-11T00:01:25.460Z,468.8462
2023-05-11T00:02:26.605Z,468.0769
2023-05-11T00:03:29.426Z,466.7692
2023-05-11T00:04:28.761Z,469.6923
2023-05-11T00:05:29.814Z,472.2308
2023-05-11T00:06:30.936Z,471.4615
2023-05-11T00:07:32.025Z,470.6923
2023-05-11T00:08:33.109Z,470.2308
2023-05-11T00:09:34.218Z,470.0769
2023-05-11T00:10:35.330Z,470.6923
2023-05-11T00:11:36.415Z,471.1538
2023-05-11T00:12:37.504Z,469.8462
2023-05-11T00:13:38.575Z,466.8462
2023-05-11T00:14:39.683Z,467.4615
2023-05-11T00:15:40.821Z,465.8462
2023-05-11T00:16:41.899Z,466.5385
2023-05-11T00:17:42.984Z,465.0769
2023-05-11T00:18:44.137Z,468.0000
2023-05-11T00:19:45.142Z,467.2308
2023-05-11T00:20:46.247Z,467.0000
2023-05-11T00:21:47.333Z,467.3077
2023-05-11T00:22:48.478Z,465.5385
2023-05-11T00:23:49.514Z,464.2308
2023-05-11T00:24:50.648Z,461.0000
2023-05-11T00:25:51.711Z,460.9231
2023-05-11T00:26:52.836Z,462.6923
2023-05-11T00:27:53.935Z,463.3846
2023-05-11T00:28:55.025Z,463.1538
2023-05-11T00:29:56.115Z,464.0000
2023-05-11T00:30:57.329Z,464.6923
2023-05-11T00:31:58.341Z,464.6154
2023-05-11T00:32:59.512Z,464.7692
2023-05-11T00:34:00.520Z,464.8462
2023-05-11T00:35:01.593Z,465.6923
2023-05-11T00:36:02.704Z,463.3846
2023-05-11T00:37:03.802Z,462.3077
2023-05-11T00:38:04.869Z,462.4615
2023-05-11T00:39:05.953Z,462.6154
2023-05-11T00:40:07.061Z,462.5385
2023-05-11T00:41:08.165Z,462.6923
2023-05-11T00:42:09.286Z,461.3846
2023-05-11T00:43:10.363Z,462.3846
2023-05-11T00:44:11.437Z,463.6154
2023-05-11T00:45:12.536Z,463.1538
2023-05-11T00:46:13.662Z,463.4615
2023-05-11T00:47:14.722Z,460.2308
2023-05-11T00:48:15.912Z,461.2308
2023-05-11T00:49:16.911Z,462.7692
2023-05-11T00:50:18.156Z,463.1538
2023-05-11T00:51:19.103Z,463.6154
2023-05-11T00:52:20.223Z,463.5385
2023-05-11T00:53:21.348Z,464.1538
2023-05-11T00:54:22.407Z,463.3846
2023-05-11T00:55:23.503Z,462.3077
2023-05-11T00:56:24.595Z,463.0769
2023-05-11T00:57:25.681Z,464.3846
2023-05-11T00:58:26.793Z,462.6154
2023-05-11T00:59:27.902Z,462.4615
2023-05-11T01:00:29.186Z,463.1538
2023-05-11T01:01:30.091Z,465.3077
2023-05-11T01:02:31.264Z,464.0000
2023-05-11T01:03:32.320Z,463.3077
2023-05-11T01:04:33.388Z,466.4615
2023-05-11T01:05:34.508Z,466.6923
2023-05-11T01:06:35.596Z,467.0769
2023-05-11T01:07:36.656Z,467.5385
2023-05-11T01:08:37.767Z,466.1538
2023-05-11T01:09:38.850Z,466.2308
2023-05-11T01:10:39.972Z,466.8462
2023-05-11T01:11:41.164Z,466.6154
2023-05-11T01:12:42.158Z,466.0769
2023-05-11T01:13:43.271Z,464.6923
2023-05-11T01:14:44.338Z,462.4615
2023-05-11T01:15:45.453Z,464.6154
2023-05-11T01:16:46.556Z,465.3846
2023-05-11T01:17:47.690Z,465.6154
2023-05-11T01:18:48.751Z,464.0000
2023-05-11T01:19:49.824Z,464.0000
2023-05-11T01:20:50.915Z,463.8462
2023-05-11T01:21:51.996Z,464.4615
2023-05-11T01:22:53.086Z,462.6154
2023-05-11T01:23:54.226Z,462.5385
2023-05-11T01:24:55.282Z,463.3846
2023-05-11T01:25:56.405Z,463.7692
2023-05-11T01:26:57.525Z,463.5385
2023-05-11T01:27:58.575Z,464.3846
2023-05-11T01:28:59.688Z,462.5385
2023-05-11T01:30:00.766Z,460.3077
2023-05-11T01:31:01.849Z,460.8462
2023-05-11T01:32:02.985Z,463.3846
2023-05-11T01:33:04.151Z,463.0000
2023-05-11T01:34:05.174Z,464.6923
2023-05-11T01:35:06.242Z,465.6923
2023-05-11T01:36:07.355Z,466.3846
2023-05-11T01:37:08.427Z,464.2308
2023-05-11T01:38:09.529Z,463.3846
2023-05-11T01:39:10.638Z,465.1538
2023-05-11T01:40:11.747Z,465.2308
2023-05-11T01:41:12.800Z,466.4615
2023-05-11T01:42:13.885Z,465.2308
2023-05-11T01:43:14.992Z,462.6154
2023-05-11T01:44:16.092Z,462.8462
2023-05-11T01:45:17.166Z,462.6923
2023-05-11T01:46:18.338Z,463.3077
2023-05-11T01:47:19.398Z,462.5385
2023-05-11T01:48:20.446Z,462.3077
2023-05-11T01:49:21.547Z,462.3846
2023-05-11T01:50:22.659Z,462.7692
2023-05-11T01:51:23.731Z,463.2308
2023-05-11T01:52:24.844Z,464.5385
2023-05-11T01:53:26.020Z,464.6923
2023-05-11T01:54:27.056Z,465.8462
2023-05-11T01:55:28.128Z,465.3077
2023-05-11T01:56:29.217Z,463.9231
2023-05-11T01:57:30.306Z,463.4615
2023-05-11T01:58:31.399Z,462.6154
2023-05-11T01:59:32.564Z,462.3077
2023-05-11T02:00:33.579Z,462.3077
2023-05-11T02:01:34.738Z,463.5385
2023-05-11T02:02:35.909Z,464.3077
2023-05-11T02:03:37.010Z,464.4615
2023-05-11T02:04:37.986Z,466.9231
2023-05-11T02:05:46.093Z,464.2308
2023-05-11T02:06:40.147Z,463.5833
2023-05-11T02:07:41.260Z,462.8462
2023-05-11T02:08:42.370Z,461.7692
2023-05-11T02:09:43.446Z,463.3077
2023-05-11T02:10:52.090Z,463.6923
2023-05-11T02:11:45.627Z,461.4167
2023-05-11T02:12:46.749Z,460.2308
2023-05-11T02:13:47.847Z,461.9231
2023-05-11T02:14:48.939Z,462.0000
2023-05-11T02:15:50.021Z,464.5385
2023-05-11T02:16:51.083Z,465.0000
2023-05-11T02:17:52.210Z,464.9231
2023-05-11T02:18:53.324Z,464.8462
2023-05-11T02:19:54.404Z,464.2308
2023-05-11T02:20:55.471Z,462.8462
2023-05-11T02:21:56.568Z,463.0769
2023-05-11T02:22:57.669Z,462.7692
2023-05-11T02:23:58.748Z,461.6154
2023-05-11T02:24:59.866Z,460.6154
2023-05-11T02:26:00.926Z,461.6154
2023-05-11T02:27:02.054Z,462.0000
2023-05-11T02:28:03.134Z,461.2308
2023-05-11T02:29:04.210Z,462.6154
2023-05-11T02:30:05.330Z,460.8462
2023-05-11T02:31:06.504Z,462.5385
2023-05-11T02:32:07.556Z,463.3846
2023-05-11T02:33:08.697Z,464.3077
2023-05-11T02:34:09.764Z,465.1538
2023-05-11T02:35:10.862Z,464.2308
2023-05-11T02:36:11.969Z,462.6923
2023-05-11T02:37:13.048Z,463.0000
2023-05-11T02:38:14.124Z,464.6923
2023-05-11T02:39:15.228Z,464.8462
2023-05-11T02:40:16.685Z,464.0000
2023-05-11T02:41:17.405Z,463.7692
2023-05-11T02:42:18.502Z,463.9231
2023-05-11T02:43:19.609Z,464.0769
2023-05-11T02:44:20.693Z,464.8462
2023-05-11T02:45:21.790Z,463.9231
2023-05-11T02:46:22.948Z,463.5385
2023-05-11T02:47:24.028Z,466.0769
2023-05-11T02:48:25.069Z,465.7692
2023-05-11T02:49:26.160Z,463.5385
2023-05-11T02:50:27.252Z,462.3077
2023-05-11T02:51:28.369Z,462.2308
2023-05-11T02:52:29.447Z,464.0769
2023-05-11T02:53:32.155Z,464.7692
2023-05-11T02:54:31.637Z,463.6154
2023-05-11T02:55:32.759Z,465.3077
2023-05-11T02:56:33.830Z,466.7692
2023-05-11T02:57:34.928Z,467.1538
2023-05-11T02:58:36.081Z,467.2308
2023-05-11T02:59:37.135Z,468.2308
2023-05-11T03:00:38.266Z,470.7692
2023-05-11T03:01:39.420Z,470.3846
2023-05-11T03:02:40.483Z,468.9231
2023-05-11T03:03:41.602Z,468.0000
2023-05-11T03:04:42.597Z,468.9231
2023-05-11T03:05:43.738Z,469.3077
2023-05-11T03:06:44.823Z,466.5385
2023-05-11T03:07:45.900Z,467.1538
2023-05-11T03:08:46.970Z,469.8462
2023-05-11T03:09:48.085Z,470.6923
2023-05-11T03:10:49.181Z,469.9231
2023-05-11T03:11:50.275Z,467.6154
2023-05-11T03:12:51.387Z,467.1538
2023-05-11T03:13:52.477Z,466.8462
2023-05-11T03:14:53.550Z,468.4615
2023-05-11T03:15:54.663Z,468.7692
2023-05-11T03:16:55.792Z,469.1538
2023-05-11T03:17:56.888Z,467.6154
2023-05-11T03:18:58.004Z,467.6923
2023-05-11T03:19:59.033Z,468.2308
2023-05-11T03:21:00.150Z,468.3846
2023-05-11T03:22:01.270Z,467.1538
2023-05-11T03:23:02.346Z,468.5385
2023-05-11T03:24:03.429Z,469.1538
2023-05-11T03:25:04.514Z,468.1538
2023-05-11T03:26:05.627Z,467.2308
2023-05-11T03:27:06.713Z,467.5385
2023-05-11T03:28:07.820Z,467.7692
2023-05-11T03:29:08.913Z,468.6154
2023-05-11T03:30:10.009Z,467.4615
2023-05-11T03:31:11.113Z,468.5385
2023-05-11T03:32:12.948Z,467.6923
2023-05-11T03:33:13.352Z,468.3077
2023-05-11T03:34:14.394Z,468.4615
2023-05-11T03:35:15.500Z,466.9231
2023-05-11T03:36:16.614Z,468.2308
2023-05-11T03:37:17.676Z,468.4615
2023-05-11T03:38:18.784Z,468.0000
2023-05-11T03:39:19.888Z,468.0000
2023-05-11T03:40:20.984Z,468.3846
2023-05-11T03:41:22.060Z,466.1538
2023-05-11T03:42:23.169Z,465.7692
2023-05-11T03:43:24.268Z,464.6923
2023-05-11T03:44:25.357Z,465.6154
2023-05-11T03:45:26.455Z,466.0000
2023-05-11T03:46:27.627Z,464.6923
2023-05-11T03:47:28.663Z,466.5385
2023-05-11T03:48:29.735Z,464.6154
2023-05-11T03:49:30.840Z,464.3077
2023-05-11T03:50:31.928Z,465.2308
2023-05-11T03:51:33.048Z,465.9231
2023-05-11T03:52:34.118Z,465.4615
2023-05-11T03:53:35.201Z,465.5385
2023-05-11T03:54:36.313Z,465.3077
2023-05-11T03:55:37.403Z,464.5385
2023-05-11T03:56:38.502Z,463.8462
2023-05-11T03:57:39.582Z,465.3846
2023-05-11T03:58:40.682Z,465.6154
2023-05-11T03:59:41.780Z,465.5385
2023-05-11T04:00:42.870Z,465.3846
2023-05-11T04:01:44.002Z,465.8462
2023-05-11T04:02:45.126Z,465.5385
2023-05-11T04:03:46.305Z,466.1538
2023-05-11T04:04:47.349Z,466.0769
2023-05-11T04:05:48.346Z,464.5385
2023-05-11T04:06:49.443Z,463.0000
2023-05-11T04:07:50.525Z,461.6154
2023-05-11T04:08:51.639Z,463.2308
2023-05-11T04:09:52.725Z,463.3846
2023-05-11T04:10:53.818Z,464.0769
2023-05-11T04:11:54.914Z,464.0000
2023-05-11T04:12:55.994Z,464.6923
2023-05-11T04:13:57.081Z,464.6923
2023-05-11T04:14:58.189Z,465.6154
2023-05-11T04:15:59.312Z,466.3077
2023-05-11T04:17:00.377Z,466.8462
2023-05-11T04:18:01.543Z,468.5385
2023-05-11T04:19:02.666Z,469.1538
2023-05-11T04:20:03.680Z,469.1538
2023-05-11T04:21:04.762Z,468.3077
2023-05-11T04:22:05.864Z,469.3077
2023-05-11T04:23:08.988Z,467.0769
2023-05-11T04:24:08.049Z,468.6923
2023-05-11T04:25:09.136Z,467.7692
2023-05-11T04:26:10.237Z,466.0000
2023-05-11T04:27:11.336Z,466.3846
2023-05-11T04:28:12.422Z,467.1538
2023-05-11T04:29:13.523Z,466.0769
2023-05-11T04:30:14.605Z,465.6923
2023-05-11T04:31:15.747Z,466.7692
2023-05-11T04:32:16.806Z,466.5385
2023-05-11T04:33:17.906Z,467.6154
2023-05-11T04:34:18.983Z,465.3846
2023-05-11T04:35:20.088Z,467.9231
2023-05-11T04:36:21.170Z,467.9231
2023-05-11T04:37:22.294Z,468.6923
2023-05-11T04:38:23.373Z,470.5385
2023-05-11T04:39:24.459Z,470.1538
2023-05-11T04:40:25.539Z,471.0769
2023-05-11T04:41:26.650Z,472.0000
2023-05-11T04:42:27.754Z,473.2308
2023-05-11T04:43:28.836Z,475.1538
2023-05-11T04:44:29.913Z,474.7692
2023-05-11T04:45:31.030Z,476.5385
2023-05-11T04:46:32.121Z,476.0000
2023-05-11T04:47:33.247Z,476.2308
2023-05-11T04:48:34.301Z,477.2308
2023-05-11T04:49:35.396Z,478.6154
2023-05-11T04:50:36.485Z,478.8462
2023-05-11T04:51:37.609Z,478.0769
2023-05-11T04:52:38.698Z,477.6923
2023-05-11T04:53:39.802Z,474.7692
2023-05-11T04:54:40.906Z,475.6923
2023-05-11T04:55:42.010Z,475.3077
2023-05-11T04:56:43.127Z,474.0000
2023-05-11T04:57:44.248Z,472.7692
2023-05-11T04:58:45.323Z,474.3846
2023-05-11T04:59:46.513Z,475.8462
2023-05-11T05:00:47.545Z,474.3846
2023-05-11T05:01:48.636Z,475.3846
2023-05-11T05:02:49.914Z,477.5385
2023-05-11T05:03:50.960Z,477.3846
2023-05-11T05:04:51.960Z,476.5385
2023-05-11T05:05:53.055Z,475.8462
2023-05-11T05:06:54.164Z,474.5385
2023-05-11T05:07:55.265Z,474.6923
2023-05-11T05:08:56.346Z,476.3077
2023-05-11T05:09:57.454Z,476.5385
2023-05-11T05:10:58.562Z,474.6923
2023-05-11T05:11:59.667Z,472.7692
2023-05-11T05:13:00.764Z,470.0000
2023-05-11T05:14:01.867Z,468.6154
2023-05-11T05:15:02.999Z,472.5385
2023-05-11T05:16:04.051Z,473.7692
2023-05-11T05:17:05.215Z,472.5385
2023-05-11T05:18:06.302Z,472.8462
2023-05-11T05:19:07.500Z,472.2308
2023-05-11T05:20:08.448Z,471.9231
2023-05-11T05:21:09.568Z,471.1538
2023-05-11T05:22:10.667Z,473.6923
2023-05-11T05:23:11.770Z,473.0769
2023-05-11T05:24:12.869Z,473.1538
2023-05-11T05:25:13.978Z,472.6154
2023-05-11T05:26:15.063Z,472.2308
2023-05-11T05:27:16.184Z,473.0000
2023-05-11T05:28:17.311Z,474.6923
2023-05-11T05:29:18.396Z,473.6923
2023-05-11T05:30:19.632Z,473.2308
2023-05-11T05:31:20.630Z,471.8462
2023-05-11T05:32:21.723Z,471.6154
2023-05-11T05:33:22.843Z,471.7692
2023-05-11T05:34:23.913Z,471.3846
2023-05-11T05:35:24.997Z,470.0769
2023-05-11T05:36:26.103Z,470.1538
2023-05-11T05:37:27.226Z,470.8462
2023-05-11T05:38:28.331Z,470.8462
2023-05-11T05:39:29.431Z,470.5385
2023-05-11T05:40:30.530Z,470.0000
2023-05-11T05:41:31.636Z,469.3846
2023-05-11T05:42:32.721Z,470.7692
2023-05-11T05:43:33.863Z,469.6923
2023-05-11T05:44:34.944Z,469.1538
2023-05-11T05:45:36.040Z,471.4615
2023-05-11T05:46:37.155Z,471.5385
2023-05-11T05:47:38.306Z,473.7692
2023-05-11T05:48:39.360Z,473.6154
2023-05-11T05:49:40.474Z,473.7692
2023-05-11T05:50:41.581Z,471.7692
2023-05-11T05:51:42.672Z,471.1538
2023-05-11T05:52:43.772Z,470.5385
2023-05-11T05:53:44.872Z,470.6154
2023-05-11T05:54:45.998Z,471.6923
2023-05-11T05:55:47.081Z,470.2308
2023-05-11T05:56:48.182Z,467.6154
2023-05-11T05:57:49.297Z,466.6923
2023-05-11T05:58:50.401Z,466.8462
2023-05-11T05:59:51.479Z,468.2308
2023-05-11T06:00:52.602Z,469.3846
2023-05-11T06:01:53.684Z,469.6154
2023-05-11T06:02:54.870Z,468.7692
2023-05-11T06:03:56.117Z,468.9231
2023-05-11T06:04:57.065Z,468.6154
2023-05-11T06:05:58.098Z,468.6154
2023-05-11T06:06:59.201Z,469.0769
2023-05-11T06:08:09.983Z,469.6154
2023-05-11T06:09:02.455Z,469.8462
2023-05-11T06:10:02.509Z,468.2308
2023-05-11T06:11:03.601Z,467.8462
2023-05-11T06:12:04.715Z,470.9231
2023-05-11T06:13:05.818Z,470.6923
2023-05-11T06:14:06.908Z,469.9231
2023-05-11T06:15:08.009Z,468.3846
2023-05-11T06:16:09.211Z,468.8462
2023-05-11T06:17:10.228Z,469.6923
2023-05-11T06:18:11.360Z,470.9231
2023-05-11T06:19:12.444Z,469.6154
2023-05-11T06:20:13.532Z,469.3846
2023-05-11T06:21:14.629Z,469.6154
2023-05-11T06:22:15.738Z,470.8462
2023-05-11T06:23:16.856Z,472.6154
2023-05-11T06:24:17.949Z,472.3846
2023-05-11T06:25:19.051Z,470.9231
2023-05-11T06:26:20.150Z,471.1538
2023-05-11T06:27:21.286Z,472.2308
2023-05-11T06:28:22.361Z,474.2308
2023-05-11T06:29:23.486Z,474.3077
2023-05-11T06:30:24.559Z,472.8462
2023-05-11T06:31:25.720Z,473.6923
2023-05-11T06:32:26.893Z,471.1538
2023-05-11T06:33:27.987Z,470.7692
2023-05-11T06:34:29.074Z,470.0000
2023-05-11T06:35:30.161Z,468.8462
2023-05-11T06:36:31.279Z,470.2308
2023-05-11T06:37:32.375Z,470.0769
2023-05-11T06:38:33.482Z,471.3846
2023-05-11T06:39:34.595Z,471.2308
2023-05-11T06:40:35.684Z,472.2308
2023-05-11T06:41:36.775Z,471.9231
2023-05-11T06:42:37.901Z,472.3077
2023-05-11T06:43:39.013Z,471.5385
2023-05-11T06:44:40.157Z,471.6154
2023-05-11T06:45:41.254Z,472.7692
2023-05-11T06:46:42.320Z,476.0000
2023-05-11T06:47:43.452Z,474.5385
2023-05-11T06:48:44.517Z,475.1538
2023-05-11T06:49:45.652Z,476.3077
2023-05-11T06:50:46.753Z,474.7692
2023-05-11T06:51:47.839Z,472.6923
2023-05-11T06:52:48.948Z,473.6154
2023-05-11T06:53:50.038Z,472.8462
2023-05-11T06:54:51.138Z,472.3846
2023-05-11T06:55:52.250Z,474.6154
2023-05-11T06:56:53.370Z,473.6154
2023-05-11T06:57:54.450Z,473.0769
2023-05-11T06:58:55.551Z,472.6923
2023-05-11T06:59:56.669Z,471.8462
2023-05-11T07:00:57.829Z,469.9231
2023-05-11T07:01:58.857Z,469.3846
2023-05-11T07:03:00.000Z,470.8462
2023-05-11T07:04:01.078Z,473.3846
2023-05-11T07:05:02.223Z,472.3846
2023-05-11T07:06:03.299Z,472.4615
2023-05-11T07:07:04.393Z,471.7692
2023-05-11T07:08:05.483Z,472.3077
2023-05-11T07:09:06.587Z,471.6154
2023-05-11T07:10:07.728Z,471.1538
2023-05-11T07:11:08.799Z,470.9231
2023-05-11T07:12:09.908Z,471.0000
2023-05-11T07:13:10.999Z,471.0000
2023-05-11T07:14:12.119Z,471.0000
2023-05-11T07:15:13.221Z,471.3846
2023-05-11T07:16:14.316Z,471.6154
2023-05-11T07:17:15.413Z,471.6923
2023-05-11T07:18:16.527Z,469.6923
2023-05-11T07:19:17.605Z,469.3077
2023-05-11T07:20:18.977Z,468.3077
2023-05-11T07:21:19.812Z,466.3846
2023-05-11T07:22:20.922Z,466.0000
2023-05-11T07:23:22.022Z,465.0769
2023-05-11T07:24:23.134Z,464.9231
2023-05-11T07:25:24.253Z,467.5385
2023-05-11T07:26:25.320Z,467.6154
2023-05-11T07:27:26.429Z,466.5385
2023-05-11T07:28:27.522Z,467.2308
2023-05-11T07:29:28.621Z,466.8462
2023-05-11T07:30:29.740Z,465.9231
2023-05-11T07:31:30.935Z,464.8462
2023-05-11T07:32:31.965Z,467.0000
2023-05-11T07:33:33.068Z,468.0769
2023-05-11T07:34:34.151Z,468.0000
2023-05-11T07:35:35.258Z,468.6154
2023-05-11T07:36:36.368Z,468.6923
2023-05-11T07:37:37.470Z,470.8462
2023-05-11T07:38:38.602Z,470.9231
2023-05-11T07:39:39.685Z,475.3077
2023-05-11T07:40:40.809Z,481.0769
2023-05-11T07:41:41.882Z,481.6923
2023-05-11T07:42:43.008Z,481.4615
2023-05-11T07:43:44.108Z,481.6923
2023-05-11T07:44:45.193Z,479.7692
2023-05-11T07:45:46.294Z,478.2308
2023-05-11T07:46:47.515Z,477.3077
2023-05-11T07:47:48.538Z,476.8462
2023-05-11T07:48:55.224Z,476.0000
2023-05-11T07:49:51.708Z,474.0769
2023-05-11T07:50:51.848Z,472.7692
2023-05-11T07:51:53.007Z,472.3846
2023-05-11T07:52:54.053Z,473.6923
2023-05-11T07:53:55.150Z,475.6154
2023-05-11T07:54:56.296Z,477.6154
2023-05-11T07:55:57.370Z,477.4615
2023-05-11T07:56:58.447Z,476.1538
2023-05-11T07:57:59.560Z,476.1538
2023-05-11T07:59:00.692Z,476.1538
2023-05-11T08:00:01.786Z,476.2308
2023-05-11T08:01:02.933Z,475.4615
2023-05-11T08:02:03.999Z,475.1538
2023-05-11T08:03:05.109Z,474.3077
2023-05-11T08:04:06.210Z,476.5385
2023-05-11T08:05:07.326Z,480.3846
2023-05-11T08:06:08.485Z,484.0000
2023-05-11T08:07:09.542Z,486.6154
2023-05-11T08:08:10.650Z,486.7692
2023-05-11T08:09:11.740Z,484.6154
2023-05-11T08:10:12.876Z,483.0769
2023-05-11T08:11:13.985Z,479.6154
2023-05-11T08:12:15.080Z,483.7692
2023-05-11T08:13:16.755Z,493.5385
2023-05-11T08:14:17.348Z,495.0769
2023-05-11T08:15:18.515Z,492.2308
2023-05-11T08:16:19.529Z,488.5385
2023-05-11T08:17:20.613Z,490.6923
2023-05-11T08:18:21.798Z,491.3846
2023-05-11T08:19:22.813Z,492.0769
2023-05-11T08:20:24.012Z,490.5385
2023-05-11T08:21:25.024Z,491.1538
2023-05-11T08:22:26.115Z,490.3846
2023-05-11T08:23:27.246Z,488.6923
2023-05-11T08:24:28.416Z,486.8462
2023-05-11T08:25:29.426Z,484.4615
2023-05-11T08:26:30.573Z,482.4615
2023-05-11T08:27:31.661Z,480.7692
2023-05-11T08:28:32.757Z,480.5385
2023-05-11T08:29:33.860Z,479.6923
2023-05-11T08:30:34.976Z,478.5385
2023-05-11T08:31:36.144Z,480.0769
2023-05-11T08:32:50.131Z,476.1538
2023-05-11T08:33:39.427Z,475.1538
2023-05-11T08:34:39.466Z,473.6154
2023-05-11T08:35:40.498Z,473.1538
2023-05-11T08:36:41.612Z,473.5385
2023-05-11T08:37:42.701Z,475.5385
2023-05-11T08:38:43.801Z,477.0000
2023-05-11T08:39:47.624Z,474.1538
2023-05-11T08:40:46.029Z,473.1538
2023-05-11T08:41:47.137Z,476.6923
2023-05-11T08:42:48.222Z,478.6154
2023-05-11T08:43:49.345Z,477.6923
2023-05-11T08:44:50.456Z,479.4615
2023-05-11T08:45:51.575Z,479.4615
2023-05-11T08:47:03.702Z,479.5385
2023-05-11T08:47:54.811Z,488.2308
2023-05-11T08:48:54.842Z,489.6923
2023-05-11T08:49:55.982Z,483.6154
2023-05-11T08:50:57.057Z,481.7692
2023-05-11T08:51:58.176Z,479.0000
2023-05-11T08:52:59.292Z,477.0769
2023-05-11T08:54:00.373Z,478.6923
2023-05-11T08:55:01.474Z,477.0000
2023-05-11T08:56:02.588Z,477.9231
2023-05-11T08:57:03.685Z,478.3077
2023-05-11T08:58:04.787Z,480.0000
2023-05-11T08:59:05.880Z,479.1538
2023-05-11T09:00:06.996Z,478.4615
2023-05-11T09:01:08.172Z,479.7692
2023-05-11T09:02:09.195Z,476.2308
2023-05-11T09:03:10.354Z,477.4615
2023-05-11T09:04:11.419Z,479.6154
2023-05-11T09:05:12.551Z,477.2308
2023-05-11T09:06:13.613Z,475.3077
2023-05-11T09:07:14.734Z,475.9231
2023-05-11T09:08:15.829Z,475.3846
2023-05-11T09:09:16.935Z,476.4615
2023-05-11T09:10:18.035Z,478.0000
2023-05-11T09:11:19.150Z,477.5385
2023-05-11T09:12:20.274Z,477.6923
2023-05-11T09:13:21.345Z,476.9231
2023-05-11T09:14:27.123Z,475.0769
2023-05-11T09:15:23.573Z,472.1538
2023-05-11T09:16:36.282Z,472.7692
2023-05-11T09:17:26.805Z,474.6154
2023-05-11T09:18:26.905Z,474.2308
2023-05-11T09:19:27.964Z,474.1538
2023-05-11T09:20:29.052Z,473.6923
2023-05-11T09:21:30.151Z,472.6923
2023-05-11T09:22:33.173Z,473.3077
2023-05-11T09:23:32.355Z,474.3846
2023-05-11T09:24:33.442Z,474.6154
2023-05-11T09:25:34.531Z,474.6923
2023-05-11T09:26:35.631Z,476.0000
2023-05-11T09:27:36.737Z,475.2308
2023-05-11T09:29:39.914Z,474.4615
2023-05-11T09:30:39.984Z,474.3077
2023-05-11T09:31:41.163Z,474.1538
2023-05-11T09:32:42.247Z,472.6154
2023-05-11T09:33:43.281Z,474.0769
2023-05-11T09:34:44.387Z,473.0000
2023-05-11T09:35:45.466Z,473.6923
2023-05-11T09:36:46.573Z,472.3846
2023-05-11T09:37:47.674Z,471.9231
2023-05-11T09:38:48.744Z,470.8462
2023-05-11T09:40:06.718Z,470.6923
2023-05-11T09:40:51.954Z,469.2308
2023-05-11T09:41:52.681Z,465.4615
2023-05-11T09:42:53.167Z,464.9231
2023-05-11T09:43:54.245Z,462.3846
2023-05-11T09:44:55.339Z,461.3846
2023-05-11T09:45:56.585Z,459.8462
2023-05-11T09:46:57.534Z,459.0000
2023-05-11T09:47:58.698Z,459.2308
2023-05-11T09:48:59.725Z,459.7692
2023-05-11T09:50:00.814Z,460.0769
2023-05-11T09:51:01.920Z,458.0000
2023-05-11T09:52:03.331Z,459.1538
2023-05-11T09:53:04.125Z,458.3077
2023-05-11T09:54:05.187Z,457.4615
2023-05-11T09:55:06.292Z,457.7692
2023-05-11T09:56:07.378Z,456.9231
2023-05-11T09:57:08.481Z,456.9231
2023-05-11T09:58:09.558Z,455.3077
2023-05-11T09:59:10.677Z,455.5385
2023-05-11T10:00:11.770Z,454.6923
2023-05-11T10:01:12.903Z,454.2308
2023-05-11T10:02:14.003Z,453.5385
2023-05-11T10:03:15.159Z,454.0000
2023-05-11T10:04:23.470Z,453.3846
2023-05-11T10:05:18.374Z,451.4615
2023-05-11T10:06:20.252Z,450.2308
2023-05-11T10:07:19.430Z,449.3846
2023-05-11T10:08:20.532Z,450.8462
2023-05-11T10:09:21.615Z,450.6923
2023-05-11T10:10:22.700Z,449.6154
2023-05-11T10:11:26.156Z,449.4615
2023-05-11T10:12:24.893Z,450.3846
2023-05-11T10:13:26.019Z,451.5385
2023-05-11T10:14:27.103Z,450.7692
2023-05-11T10:15:28.188Z,449.6154
2023-05-11T10:16:29.305Z,447.1538
2023-05-11T10:17:30.405Z,449.2308
2023-05-11T10:18:31.479Z,447.9231
2023-05-11T10:19:32.559Z,448.0000
2023-05-11T10:20:33.811Z,445.9231
2023-05-11T10:21:34.718Z,446.3846
2023-05-11T10:22:35.830Z,446.1538
2023-05-11T10:23:36.927Z,446.8462
2023-05-11T10:24:38.010Z,448.6923
2023-05-11T10:25:39.096Z,449.8462
2023-05-11T10:26:40.204Z,449.0769
2023-05-11T10:27:41.289Z,446.8462
2023-05-11T10:28:42.384Z,446.6154
2023-05-11T10:29:43.480Z,448.3077
2023-05-11T10:30:44.575Z,451.4615
2023-05-11T10:31:45.726Z,453.5385
2023-05-11T10:32:46.870Z,454.4615
2023-05-11T10:33:49.254Z,452.5385
2023-05-11T10:34:49.011Z,456.2308
2023-05-11T10:35:51.527Z,459.0000
2023-05-11T10:36:51.189Z,459.5385
2023-05-11T10:37:52.282Z,462.4615
2023-05-11T10:38:53.393Z,461.1538
2023-05-11T10:39:54.465Z,459.3846
2023-05-11T10:40:55.559Z,456.8462
2023-05-11T10:41:56.674Z,457.6154
2023-05-11T10:42:57.765Z,461.6154
2023-05-11T10:43:58.862Z,465.6154
2023-05-11T10:44:59.957Z,466.1538
2023-05-11T10:46:01.061Z,465.0769
2023-05-11T10:47:02.140Z,466.6154
2023-05-11T10:48:03.360Z,465.9231
2023-05-11T10:49:04.317Z,468.4615
2023-05-11T10:50:05.442Z,472.8462
2023-05-11T10:51:06.513Z,490.7692
2023-05-11T10:52:07.628Z,531.3077
2023-05-11T10:53:08.698Z,539.3846
2023-05-11T10:54:09.812Z,549.8461
2023-05-11T10:55:10.893Z,554.6154
2023-05-11T10:56:11.973Z,567.2308
2023-05-11T10:57:13.103Z,573.8461
2023-05-11T10:58:14.207Z,581.4615
2023-05-11T10:59:15.285Z,596.2308
2023-05-11T11:00:16.534Z,607.0000
2023-05-11T11:01:17.503Z,607.3077
2023-05-11T11:02:18.561Z,607.3846
2023-05-11T11:03:19.663Z,611.5385
2023-05-11T11:04:20.774Z,617.6923
2023-05-11T11:05:22.038Z,620.1539
2023-05-11T11:06:22.944Z,626.8461
2023-05-11T11:07:24.063Z,630.7692
2023-05-11T11:08:25.145Z,638.4615
2023-05-11T11:09:26.240Z,643.8461
2023-05-11T11:10:27.324Z,652.5385
2023-05-11T11:11:28.443Z,658.0769
2023-05-11T11:12:29.555Z,663.5385
2023-05-11T11:13:30.697Z,665.2308
2023-05-11T11:14:31.754Z,665.8461
2023-05-11T11:15:32.814Z,666.0769
2023-05-11T11:16:33.972Z,670.0000
2023-05-11T11:17:35.123Z,683.0769
2023-05-11T11:18:36.146Z,689.1539
2023-05-11T11:19:37.309Z,686.3846
2023-05-11T11:20:38.312Z,693.5385
2023-05-11T11:21:39.385Z,697.0769
2023-05-11T11:22:40.518Z,704.5385
2023-05-11T11:23:41.617Z,711.6923
2023-05-11T11:24:42.753Z,707.5385
2023-05-11T11:25:43.803Z,695.3846
2023-05-11T11:26:44.887Z,691.7692
2023-05-11T11:27:46.157Z,688.3077
2023-05-11T11:28:47.086Z,689.5385
2023-05-11T11:29:48.234Z,691.5385
2023-05-11T11:30:49.347Z,688.6923
2023-05-11T11:31:50.400Z,684.0000
2023-05-11T11:32:51.569Z,687.0769
2023-05-11T11:33:52.586Z,694.3077
2023-05-11T11:34:53.692Z,702.7692
2023-05-11T11:35:54.820Z,713.9231
2023-05-11T11:36:55.919Z,714.4615
2023-05-11T11:37:56.967Z,714.6154
2023-05-11T11:38:58.088Z,718.0000
2023-05-11T11:40:05.999Z,718.7692
2023-05-11T11:41:01.333Z,719.8461
2023-05-11T11:42:01.391Z,719.8461
2023-05-11T11:43:02.468Z,723.8461
2023-05-11T11:44:03.566Z,737.3846
2023-05-11T11:45:04.695Z,744.8461
2023-05-11T11:46:05.759Z,747.1539
2023-05-11T11:47:06.868Z,745.8461
2023-05-11T11:48:08.023Z,744.2308
2023-05-11T11:49:09.052Z,738.4615
2023-05-11T11:50:10.154Z,739.0000
2023-05-11T11:51:11.282Z,741.2308
2023-05-11T11:52:12.350Z,742.2308
2023-05-11T11:53:13.430Z,740.3846
2023-05-11T11:54:14.519Z,738.3077
2023-05-11T11:55:15.698Z,735.0769
2023-05-11T11:56:16.717Z,734.8461
2023-05-11T11:57:17.818Z,736.5385
2023-05-11T11:58:18.956Z,744.0769